Time;durP1;ratioP1;P1;durP2;ratioP2;P2;SDS_P1;SDS_P2;PMS_P1;PMS_P2;Temp;Humidity;BMP_temperature;BMP_pressure;BME280_temperature;BME280_humidity;BME280_pressure;Samples;Min_cycle;Max_cycle;Signal;HPM_P1;HPM_P2
2022/06/27 00:01:10;;;;;;;9.00;7.13;;;17.30;99.90;;;;;;4989239;28;20054;-70
2022/06/27 00:03:35;;;;;;;8.02;7.22;;;17.30;99.90;;;;;;5006896;28;20100;-70
2022/06/27 00:06:01;;;;;;;9.25;7.18;;;17.30;99.90;;;;;;5004665;28;20038;-70
2022/06/27 00:08:27;;;;;;;7.47;6.32;;;17.20;99.90;;;;;;5005188;28;20045;-70
2022/06/27 00:10:53;;;;;;;7.72;6.70;;;17.20;99.90;;;;;;4987562;28;20044;-70
2022/06/27 00:13:19;;;;;;;7.38;6.57;;;17.20;99.90;;;;;;4987164;28;21328;-70
2022/06/27 00:15:45;;;;;;;8.63;7.82;;;17.20;99.90;;;;;;5005774;28;20045;-70
2022/06/27 00:18:10;;;;;;;6.90;6.25;;;17.20;99.90;;;;;;4987055;28;20052;-70
2022/06/27 00:20:36;;;;;;;7.60;6.90;;;17.20;99.90;;;;;;4984702;28;21104;-70
2022/06/27 00:23:02;;;;;;;7.05;6.35;;;17.10;99.90;;;;;;4989328;28;20073;-70
2022/06/27 00:25:28;;;;;;;7.95;6.82;;;17.10;99.90;;;;;;5003970;28;20108;-71
2022/06/27 00:27:53;;;;;;;9.85;6.80;;;17.10;99.90;;;;;;4970785;28;20120;-71
2022/06/27 00:30:20;;;;;;;8.48;6.93;;;17.00;99.90;;;;;;5004995;28;20077;-70
2022/06/27 00:32:47;;;;;;;9.93;7.72;;;17.10;99.90;;;;;;5002239;28;20487;-71
2022/06/27 00:35:13;;;;;;;12.02;8.25;;;17.10;99.90;;;;;;4971904;28;20455;-71
2022/06/27 00:37:39;;;;;;;8.82;8.10;;;17.10;99.90;;;;;;4987770;28;20042;-71
2022/06/27 00:40:07;;;;;;;9.20;8.32;;;17.10;99.90;;;;;;5004128;28;20065;-71
2022/06/27 00:42:34;;;;;;;9.48;8.48;;;17.10;99.90;;;;;;5004558;28;20279;-71
2022/06/27 00:45:00;;;;;;;9.65;8.65;;;17.00;99.90;;;;;;4970477;28;20050;-71
2022/06/27 00:47:26;;;;;;;10.20;9.20;;;17.00;99.90;;;;;;5004130;28;20061;-71
2022/06/27 00:49:51;;;;;;;6.85;6.15;;;17.00;99.90;;;;;;4988425;28;20615;-71
2022/06/27 00:52:17;;;;;;;9.80;8.05;;;16.90;99.90;;;;;;4986942;28;20408;-71
2022/06/27 00:54:46;;;;;;;10.90;8.23;;;16.90;99.90;;;;;;4989014;28;20095;-71
2022/06/27 00:57:13;;;;;;;9.60;8.30;;;16.90;99.90;;;;;;4988027;28;20049;-71
2022/06/27 00:59:40;;;;;;;9.93;7.72;;;16.90;99.90;;;;;;4987077;28;20046;-71
2022/06/27 01:02:07;;;;;;;9.23;8.00;;;16.80;99.90;;;;;;5020291;28;20416;-71
2022/06/27 01:04:35;;;;;;;8.65;5.97;;;16.80;99.90;;;;;;4986793;28;20900;-71
2022/06/27 01:07:02;;;;;;;7.97;7.20;;;16.80;99.90;;;;;;4983473;28;20100;-71
2022/06/27 01:09:27;;;;;;;8.27;7.47;;;16.80;99.90;;;;;;5004666;28;20050;-71
2022/06/27 01:11:53;;;;;;;7.80;7.05;;;16.80;99.90;;;;;;5005400;28;20038;-71
2022/06/27 01:14:19;;;;;;;9.55;8.40;;;16.80;99.90;;;;;;4972132;28;20073;-71
2022/06/27 01:16:46;;;;;;;11.68;10.68;;;16.80;99.90;;;;;;4969957;28;20083;-70
2022/06/27 01:19:14;;;;;;;11.35;10.20;;;16.80;99.90;;;;;;5000890;28;20639;-70
2022/06/27 01:21:49;;;;;;;8.75;7.85;;;16.70;99.90;;;;;;4987615;28;20046;-70
2022/06/27 01:24:16;;;;;;;11.40;10.30;;;16.70;99.90;;;;;;5002958;28;20050;-70
2022/06/27 01:26:43;;;;;;;11.65;10.52;;;16.70;99.90;;;;;;4986967;28;20325;-70
2022/06/27 01:29:09;;;;;;;9.52;8.40;;;16.70;99.90;;;;;;5003266;28;20045;-71
2022/06/27 01:31:37;;;;;;;9.65;8.73;;;16.70;99.90;;;;;;5004381;28;20516;-71
2022/06/27 01:34:03;;;;;;;9.00;8.10;;;16.70;99.90;;;;;;5001810;28;20042;-71
2022/06/27 01:36:42;;;;;;;11.40;10.30;;;16.70;99.90;;;;;;4987231;28;20049;-71
2022/06/27 01:39:18;;;;;;;11.93;10.30;;;16.80;99.90;;;;;;4988460;28;20037;-71
2022/06/27 01:41:48;;;;;;;9.75;8.65;;;16.80;99.90;;;;;;4972093;28;20038;-71
2022/06/27 01:44:15;;;;;;;9.13;8.27;;;16.80;99.90;;;;;;4986539;28;20050;-71
2022/06/27 01:46:48;;;;;;;9.48;8.27;;;16.70;99.90;;;;;;5002975;28;20046;-71
2022/06/27 01:49:15;;;;;;;8.15;7.35;;;16.70;99.90;;;;;;4986242;28;20041;-71
2022/06/27 01:51:42;;;;;;;10.40;9.45;;;16.70;99.90;;;;;;5003463;28;20501;-71
2022/06/27 01:54:09;;;;;;;12.75;10.20;;;16.70;99.90;;;;;;4986998;28;20404;-71
2022/06/27 01:56:35;;;;;;;10.48;9.40;;;16.60;99.90;;;;;;4987613;28;20045;-71
2022/06/27 01:59:01;;;;;;;11.60;10.50;;;16.60;99.90;;;;;;4987262;28;20504;-71
2022/06/27 02:01:27;;;;;;;12.32;8.75;;;16.70;99.90;;;;;;4984941;28;20048;-71
2022/06/27 02:03:55;;;;;;;12.93;10.23;;;16.70;99.90;;;;;;4987284;28;20164;-71
2022/06/27 02:06:22;;;;;;;8.82;8.02;;;16.60;99.90;;;;;;4999661;28;20128;-71
2022/06/27 02:08:51;;;;;;;9.15;8.23;;;16.70;99.90;;;;;;4987943;28;20621;-71
2022/06/27 02:11:18;;;;;;;10.20;9.30;;;16.70;99.90;;;;;;4987127;28;20228;-70
2022/06/27 02:13:47;;;;;;;10.57;8.57;;;16.70;99.90;;;;;;4987796;28;20099;-71
2022/06/27 02:16:16;;;;;;;12.15;9.75;;;16.70;99.90;;;;;;5001478;28;20045;-71
2022/06/27 02:18:42;;;;;;;14.25;13.00;;;16.70;99.90;;;;;;5001719;28;20074;-71
2022/06/27 02:21:23;;;;;;;13.43;12.07;;;16.70;99.90;;;;;;4947049;28;20042;-71
2022/06/27 02:23:49;;;;;;;13.43;11.77;;;16.70;99.90;;;;;;4999478;28;20124;-72
2022/06/27 02:26:16;;;;;;;12.25;10.65;;;16.70;99.90;;;;;;4984094;28;20130;-71
2022/06/27 02:28:43;;;;;;;11.07;10.07;;;16.60;99.90;;;;;;5000639;28;20493;-71
2022/06/27 02:31:10;;;;;;;10.82;8.70;;;16.70;99.90;;;;;;4982656;28;20041;-70
2022/06/27 02:33:38;;;;;;;11.10;10.10;;;16.70;99.90;;;;;;4985637;28;20053;-71
2022/06/27 02:36:06;;;;;;;11.15;10.15;;;16.70;99.90;;;;;;5003645;28;20238;-71
2022/06/27 02:38:32;;;;;;;10.05;9.15;;;16.70;99.90;;;;;;5001054;28;20803;-71
2022/06/27 02:41:01;;;;;;;10.82;9.80;;;16.70;99.90;;;;;;4973386;28;20095;-70
2022/06/27 02:43:33;;;;;;;11.25;10.25;;;16.60;99.90;;;;;;4999346;28;20435;-71
2022/06/27 02:45:59;;;;;;;9.75;8.85;;;16.60;99.90;;;;;;4989353;28;20058;-71
2022/06/27 02:48:26;;;;;;;10.35;9.32;;;16.60;99.90;;;;;;5006807;28;20054;-71
2022/06/27 02:50:56;;;;;;;11.18;10.18;;;16.60;99.90;;;;;;5006402;28;20045;-71
2022/06/27 02:53:35;;;;;;;13.10;11.85;;;16.60;99.90;;;;;;4999649;28;20050;-71
2022/06/27 02:56:09;;;;;;;14.00;12.45;;;16.60;99.90;;;;;;5006927;28;20050;-71
2022/06/27 02:58:53;;;;;;;14.40;13.20;;;16.60;99.90;;;;;;5000319;28;20041;-71
2022/06/27 03:01:21;;;;;;;18.27;16.75;;;16.60;99.90;;;;;;5003875;28;20121;-71
2022/06/27 03:03:49;;;;;;;15.48;13.95;;;16.60;99.90;;;;;;4989509;28;20137;-70
2022/06/27 03:06:15;;;;;;;18.30;16.70;;;16.60;99.90;;;;;;5004845;28;20077;-70
2022/06/27 03:08:43;;;;;;;18.38;16.75;;;16.60;99.90;;;;;;5001889;28;20073;-70
2022/06/27 03:11:17;;;;;;;17.38;15.80;;;16.60;99.90;;;;;;4987137;28;20163;-70
2022/06/27 03:13:46;;;;;;;18.45;16.70;;;16.70;99.90;;;;;;4971338;28;20603;-70
2022/06/27 03:16:14;;;;;;;20.70;18.98;;;16.70;99.90;;;;;;4986826;28;20077;-70
2022/06/27 03:18:41;;;;;;;22.05;19.95;;;16.70;99.90;;;;;;4985445;28;20113;-70
2022/06/27 03:21:07;;;;;;;22.60;20.63;;;16.70;99.90;;;;;;5003525;28;20124;-70
2022/06/27 03:23:33;;;;;;;20.27;18.58;;;16.70;99.90;;;;;;5005613;28;20436;-70
2022/06/27 03:25:59;;;;;;;21.27;19.50;;;16.70;99.90;;;;;;5004156;28;20046;-70
2022/06/27 03:28:25;;;;;;;22.52;20.52;;;16.80;99.90;;;;;;5004297;28;20049;-72
2022/06/27 03:30:51;;;;;;;25.20;22.80;;;16.80;99.90;;;;;;4986138;28;20532;-70
2022/06/27 03:33:17;;;;;;;28.63;25.77;;;16.80;99.90;;;;;;4987910;28;20045;-70
2022/06/27 03:35:43;;;;;;;23.33;21.33;;;16.80;99.90;;;;;;4972163;28;20038;-70
2022/06/27 03:38:12;;;;;;;26.48;23.88;;;16.80;99.90;;;;;;5003931;28;20050;-70
2022/06/27 03:40:38;;;;;;;20.90;19.20;;;16.80;99.90;;;;;;5004344;28;20544;-70
2022/06/27 03:43:04;;;;;;;26.48;23.88;;;16.80;99.90;;;;;;5001670;28;20054;-70
2022/06/27 03:45:29;;;;;;;23.77;21.67;;;16.80;99.90;;;;;;4988319;28;20148;-70
2022/06/27 03:47:58;;;;;;;21.98;20.02;;;16.80;99.90;;;;;;4985988;28;20152;-70
2022/06/27 03:50:24;;;;;;;25.85;23.45;;;16.80;99.90;;;;;;4987882;28;20054;-70
2022/06/27 03:52:51;;;;;;;30.05;27.10;;;16.80;99.90;;;;;;5003823;28;20077;-70
2022/06/27 03:55:18;;;;;;;27.50;25.00;;;16.80;99.90;;;;;;4971043;28;20120;-70
2022/06/27 03:57:58;;;;;;;25.08;22.73;;;16.80;99.90;;;;;;5000969;28;20104;-70
2022/06/27 04:00:25;;;;;;;;;;;16.80;99.90;;;;;;5003217;28;20081;-70
2022/06/27 04:02:51;;;;;;;20.30;18.42;;;16.70;99.90;;;;;;4981525;28;20020;-70
2022/06/27 04:05:17;;;;;;;20.80;19.00;;;16.70;99.90;;;;;;5006115;28;20527;-70
2022/06/27 04:07:43;;;;;;;20.55;18.63;;;16.80;99.90;;;;;;4987955;28;20117;-69
2022/06/27 04:10:11;;;;;;;21.23;19.48;;;16.80;99.90;;;;;;4983281;28;20473;-70
2022/06/27 04:12:38;;;;;;;22.88;20.92;;;16.70;99.90;;;;;;4988542;28;20034;-70
2022/06/27 04:15:05;;;;;;;27.45;24.98;;;16.70;99.90;;;;;;5005410;28;20066;-70
2022/06/27 04:17:32;;;;;;;30.60;27.83;;;16.70;99.90;;;;;;5003610;28;20069;-70
2022/06/27 04:19:57;;;;;;;31.42;28.60;;;16.60;99.90;;;;;;4989450;28;20082;-70
2022/06/27 04:22:23;;;;;;;27.75;25.20;;;16.60;99.90;;;;;;4972574;28;20077;-70
2022/06/27 04:24:50;;;;;;;26.05;23.70;;;16.60;99.90;;;;;;5006127;28;20041;-69
2022/06/27 04:27:19;;;;;;;23.52;21.33;;;16.60;99.90;;;;;;4989441;28;20054;-69
2022/06/27 04:29:45;;;;;;;22.27;20.45;;;16.60;99.90;;;;;;5005939;28;20073;-70
2022/06/27 04:32:11;;;;;;;21.45;19.67;;;16.60;99.90;;;;;;5005453;28;20050;-70
2022/06/27 04:34:37;;;;;;;23.63;21.67;;;16.70;99.90;;;;;;4986608;28;20120;-69
2022/06/27 04:37:03;;;;;;;19.38;17.85;;;16.70;99.90;;;;;;4989085;28;20136;-70
2022/06/27 04:39:30;;;;;;;17.30;15.77;;;16.60;99.90;;;;;;4988489;28;20144;-69
2022/06/27 04:41:57;;;;;;;16.30;14.88;;;16.70;99.90;;;;;;4988344;28;20053;-70
2022/06/27 04:44:23;;;;;;;15.95;14.45;;;16.60;99.90;;;;;;4984924;28;20732;-70
2022/06/27 04:46:49;;;;;;;15.25;13.98;;;16.60;99.90;;;;;;4988182;28;20068;-70
2022/06/27 04:49:19;;;;;;;15.02;13.70;;;16.60;99.90;;;;;;5003611;28;20054;-70
2022/06/27 04:51:49;;;;;;;15.23;13.93;;;16.50;99.90;;;;;;5005381;28;20771;-72
2022/06/27 04:54:16;;;;;;;16.65;15.05;;;16.50;99.90;;;;;;4988341;28;20136;-70
2022/06/27 04:56:44;;;;;;;16.58;15.07;;;16.50;99.90;;;;;;4972717;28;20072;-70
2022/06/27 04:59:11;;;;;;;16.77;15.27;;;16.50;99.90;;;;;;4987828;28;20046;-70
2022/06/27 05:01:38;;;;;;;15.07;13.82;;;16.50;99.90;;;;;;4971900;28;20038;-70
2022/06/27 05:04:04;;;;;;;16.88;15.35;;;16.50;99.90;;;;;;4968025;28;20045;-70
2022/06/27 05:06:30;;;;;;;16.10;14.00;;;16.60;99.90;;;;;;4985996;28;20050;-69
2022/06/27 05:08:56;;;;;;;15.15;13.90;;;16.60;99.90;;;;;;4967644;28;20045;-70
2022/06/27 05:11:22;;;;;;;14.27;13.07;;;16.60;99.90;;;;;;4984036;28;20042;-70
2022/06/27 05:13:48;;;;;;;14.88;13.48;;;16.50;99.90;;;;;;5000269;28;20380;-69
2022/06/27 05:16:16;;;;;;;12.63;11.50;;;16.50;99.90;;;;;;4968836;28;20074;-69
2022/06/27 05:18:42;;;;;;;11.57;10.57;;;16.50;99.90;;;;;;5001088;28;20038;-70
2022/06/27 05:21:08;;;;;;;9.77;8.80;;;16.60;99.90;;;;;;5001585;28;20281;-70
2022/06/27 05:23:37;;;;;;;8.50;7.70;;;16.50;99.90;;;;;;5001290;28;21023;-70
2022/06/27 05:26:04;;;;;;;9.30;8.50;;;16.50;99.90;;;;;;5001508;28;20644;-70
2022/06/27 05:28:30;;;;;;;5.82;5.22;;;16.50;99.90;;;;;;5001351;28;20574;-70
2022/06/27 05:30:56;;;;;;;6.07;5.47;;;16.50;99.90;;;;;;4984381;28;20417;-70
2022/06/27 05:33:25;;;;;;;7.82;5.90;;;16.50;99.90;;;;;;5002291;28;20053;-70
2022/06/27 05:35:52;;;;;;;6.20;5.50;;;16.40;99.90;;;;;;4980576;28;20299;-72
2022/06/27 05:38:21;;;;;;;5.47;4.82;;;16.50;99.90;;;;;;4998171;28;20038;-70
2022/06/27 05:40:50;;;;;;;6.07;4.70;;;16.50;99.90;;;;;;4999268;28;20050;-70
2022/06/27 05:43:17;;;;;;;5.93;4.40;;;16.50;99.90;;;;;;4981164;28;20516;-70
2022/06/27 05:45:43;;;;;;;5.63;4.55;;;16.50;99.90;;;;;;4985078;28;20046;-71
2022/06/27 05:48:09;;;;;;;4.57;4.05;;;16.50;99.90;;;;;;4985873;28;20080;-70
2022/06/27 05:50:35;;;;;;;5.10;4.15;;;16.60;99.90;;;;;;5001819;28;20436;-71
2022/06/27 05:53:01;;;;;;;6.40;5.72;;;16.60;99.90;;;;;;4984441;28;20084;-70
2022/06/27 05:55:28;;;;;;;6.38;5.55;;;16.60;99.90;;;;;;5001116;28;20061;-71
2022/06/27 05:57:56;;;;;;;6.00;5.03;;;16.70;99.90;;;;;;4984689;28;20066;-71
2022/06/27 06:00:23;;;;;;;6.00;4.72;;;16.80;99.90;;;;;;5001295;28;20358;-70
2022/06/27 06:02:49;;;;;;;4.85;3.78;;;16.80;99.90;;;;;;5000685;28;20038;-71
2022/06/27 06:05:15;;;;;;;4.75;3.65;;;16.80;99.90;;;;;;4999323;28;20066;-70
2022/06/27 06:07:45;;;;;;;4.22;3.40;;;16.80;99.90;;;;;;5000963;28;20107;-70
2022/06/27 06:10:11;;;;;;;4.88;3.97;;;16.80;99.90;;;;;;5000852;28;20042;-70
2022/06/27 06:12:37;;;;;;;6.22;4.43;;;16.80;99.90;;;;;;4983514;28;20489;-70
2022/06/27 06:15:04;;;;;;;4.47;3.78;;;16.80;99.90;;;;;;4978742;28;20046;-70
2022/06/27 06:17:33;;;;;;;5.65;4.30;;;16.80;99.90;;;;;;4986706;28;20401;-70
2022/06/27 06:19:59;;;;;;;5.35;4.30;;;16.80;99.90;;;;;;5001194;28;20057;-70
2022/06/27 06:22:25;;;;;;;6.57;4.93;;;16.80;99.90;;;;;;4982066;28;20041;-71
2022/06/27 06:24:51;;;;;;;4.00;3.28;;;16.80;99.90;;;;;;4982321;28;20045;-70
2022/06/27 06:27:18;;;;;;;4.65;3.80;;;16.80;99.90;;;;;;4983447;28;20054;-70
2022/06/27 06:29:44;;;;;;;4.95;3.50;;;16.80;99.90;;;;;;4983503;28;20038;-70
2022/06/27 06:32:11;;;;;;;5.95;4.30;;;16.80;99.90;;;;;;4969955;28;20056;-70
2022/06/27 06:34:38;;;;;;;5.10;3.55;;;16.80;99.90;;;;;;5000022;28;20298;-70
2022/06/27 06:37:06;;;;;;;5.32;4.07;;;16.80;99.90;;;;;;4988911;28;20050;-70
2022/06/27 06:39:32;;;;;;;5.68;4.57;;;16.80;99.90;;;;;;4994041;28;20069;-70
2022/06/27 06:42:02;;;;;;;5.22;4.15;;;16.80;99.90;;;;;;5000633;28;20063;-70
2022/06/27 06:44:28;;;;;;;5.32;4.82;;;16.90;99.90;;;;;;4999131;28;20572;-70
2022/06/27 06:46:55;;;;;;;5.82;5.13;;;16.90;99.90;;;;;;4984893;28;20057;-70
2022/06/27 06:49:22;;;;;;;4.80;4.35;;;16.90;99.90;;;;;;5001255;28;20038;-70
2022/06/27 06:51:50;;;;;;;5.45;4.50;;;16.90;99.90;;;;;;4999887;28;20424;-70
2022/06/27 06:54:20;;;;;;;5.43;4.45;;;16.90;99.90;;;;;;4967673;28;20041;-70
2022/06/27 06:56:52;;;;;;;6.22;5.68;;;16.90;99.90;;;;;;5000173;28;20040;-70
2022/06/27 06:59:21;;;;;;;6.20;5.15;;;16.90;99.90;;;;;;4999120;28;20038;-70
2022/06/27 07:01:47;;;;;;;5.53;4.85;;;16.90;99.90;;;;;;5001263;28;20093;-70
2022/06/27 07:04:16;;;;;;;6.28;5.65;;;17.00;99.90;;;;;;5000010;28;20068;-70
2022/06/27 07:06:43;;;;;;;4.95;4.45;;;17.00;99.90;;;;;;4983924;28;20080;-70
2022/06/27 07:09:09;;;;;;;5.53;4.18;;;17.00;99.90;;;;;;5000393;28;20560;-70
2022/06/27 07:11:37;;;;;;;4.30;3.65;;;17.10;99.90;;;;;;4981925;28;20089;-70
2022/06/27 07:14:04;;;;;;;5.53;4.90;;;17.10;99.90;;;;;;4998609;28;20044;-70
2022/06/27 07:16:31;;;;;;;7.07;4.35;;;17.10;99.90;;;;;;5000754;28;20046;-70
2022/06/27 07:19:00;;;;;;;6.30;4.93;;;17.10;99.90;;;;;;4984352;28;20038;-70
2022/06/27 07:21:28;;;;;;;6.50;5.00;;;17.20;99.90;;;;;;5000299;28;20514;-70
2022/06/27 07:23:55;;;;;;;5.35;4.85;;;17.10;99.90;;;;;;4999961;28;20049;-70
2022/06/27 07:26:23;;;;;;;5.65;4.50;;;17.10;99.90;;;;;;4984921;28;20042;-70
2022/06/27 07:28:51;;;;;;;6.13;5.07;;;17.10;99.90;;;;;;4983077;28;20097;-70
2022/06/27 07:31:20;;;;;;;5.75;5.18;;;17.10;99.90;;;;;;4986168;28;20050;-70
2022/06/27 07:33:48;;;;;;;8.00;5.07;;;17.10;99.90;;;;;;4986729;28;20053;-70
2022/06/27 07:36:15;;;;;;;5.75;4.93;;;17.10;99.90;;;;;;5002510;28;20125;-70
2022/06/27 07:38:46;;;;;;;6.85;6.22;;;17.10;99.90;;;;;;5001967;28;20046;-70
2022/06/27 07:41:15;;;;;;;7.18;6.45;;;17.10;99.90;;;;;;4988644;28;20510;-70
2022/06/27 07:43:44;;;;;;;7.90;7.10;;;17.10;99.90;;;;;;5002676;28;20050;-70
2022/06/27 07:46:10;;;;;;;8.00;7.20;;;17.10;99.90;;;;;;4986545;28;20056;-69
2022/06/27 07:48:37;;;;;;;6.40;5.80;;;17.10;99.90;;;;;;5005516;28;20073;-69
2022/06/27 07:51:03;;;;;;;5.22;4.72;;;17.20;99.90;;;;;;5005265;28;20046;-69
2022/06/27 07:53:32;;;;;;;6.30;4.95;;;17.20;99.90;;;;;;5003616;28;20115;-70
2022/06/27 07:56:03;;;;;;;5.97;5.47;;;17.20;99.90;;;;;;4983033;28;20362;-70
2022/06/27 07:58:35;;;;;;;5.70;5.10;;;17.20;99.90;;;;;;4976896;28;20053;-70
2022/06/27 08:01:04;;;;;;;6.15;4.35;;;17.20;99.90;;;;;;4999503;28;20145;-70
2022/06/27 08:03:39;;;;;;;4.97;4.50;;;17.20;99.90;;;;;;5001619;28;20072;-70
2022/06/27 08:06:24;;;;;;;6.97;5.22;;;17.30;99.90;;;;;;5004821;28;20041;-69
2022/06/27 08:08:59;;;;;;;5.88;5.30;;;17.30;99.90;;;;;;5002111;28;20156;-69
2022/06/27 08:11:30;;;;;;;7.35;4.88;;;17.30;99.90;;;;;;5003647;28;20054;-69
2022/06/27 08:13:58;;;;;;;5.68;5.13;;;17.30;99.90;;;;;;5002372;28;20054;-70
2022/06/27 08:16:26;;;;;;;6.72;5.32;;;17.30;99.90;;;;;;5001830;28;20128;-69
2022/06/27 08:18:52;;;;;;;9.32;5.40;;;17.40;99.90;;;;;;5001299;28;20038;-70
2022/06/27 08:21:25;;;;;;;6.35;5.40;;;17.50;99.90;;;;;;4984774;28;20041;-70
2022/06/27 08:23:52;;;;;;;5.95;4.45;;;17.60;99.90;;;;;;5000875;28;20046;-69
2022/06/27 08:26:18;;;;;;;4.85;4.10;;;17.70;99.90;;;;;;5004747;28;20046;-70
2022/06/27 08:28:47;;;;;;;4.80;3.92;;;17.80;99.90;;;;;;5002219;28;20034;-70
2022/06/27 08:31:14;;;;;;;4.78;3.92;;;17.80;99.90;;;;;;4987911;28;20050;-70
2022/06/27 08:33:45;;;;;;;4.15;3.65;;;17.80;99.90;;;;;;5002076;28;20045;-70
2022/06/27 08:36:17;;;;;;;5.40;3.80;;;17.80;99.90;;;;;;4985439;28;20052;-70
2022/06/27 08:38:46;;;;;;;4.22;3.53;;;17.90;99.90;;;;;;4971265;28;20578;-70
2022/06/27 08:41:12;;;;;;;4.53;3.38;;;17.90;99.90;;;;;;4985520;28;20057;-69
2022/06/27 08:43:42;;;;;;;5.35;4.10;;;17.90;99.90;;;;;;4986032;28;20054;-70
2022/06/27 08:46:12;;;;;;;7.30;4.10;;;17.90;99.90;;;;;;4999653;28;20221;-69
2022/06/27 08:48:41;;;;;;;5.43;4.22;;;17.90;99.90;;;;;;4986693;28;20073;-70
2022/06/27 08:51:07;;;;;;;3.47;3.00;;;18.00;99.90;;;;;;4988476;28;20049;-70
2022/06/27 08:53:39;;;;;;;3.63;2.97;;;18.10;99.90;;;;;;4967775;28;20049;-70
2022/06/27 08:56:09;;;;;;;3.92;3.28;;;18.10;99.90;;;;;;5003787;28;20404;-70
2022/06/27 08:58:35;;;;;;;4.57;3.22;;;18.20;99.90;;;;;;4995644;28;20072;-70
2022/06/27 09:01:01;;;;;;;3.88;2.88;;;18.30;99.90;;;;;;4967570;28;20129;-70
2022/06/27 09:03:28;;;;;;;3.75;2.88;;;18.40;99.90;;;;;;5004898;28;20042;-70
2022/06/27 09:05:59;;;;;;;4.30;2.80;;;18.50;99.90;;;;;;5004168;28;20397;-70
2022/06/27 09:08:28;;;;;;;3.55;2.40;;;18.60;99.90;;;;;;5002956;28;20060;-70
2022/06/27 09:10:56;;;;;;;4.72;2.80;;;18.70;99.90;;;;;;5005649;28;20111;-70
2022/06/27 09:13:23;;;;;;;3.10;2.60;;;18.70;99.90;;;;;;5003766;28;20041;-70
2022/06/27 09:16:00;;;;;;;2.85;2.10;;;18.80;99.90;;;;;;5004222;28;20037;-70
2022/06/27 09:18:29;;;;;;;3.75;2.58;;;18.90;99.90;;;;;;5002704;28;20052;-70
2022/06/27 09:20:58;;;;;;;2.40;1.88;;;18.90;99.90;;;;;;4986636;28;20107;-70
2022/06/27 09:23:53;;;;;;;3.47;2.78;;;18.90;99.90;;;;;;4983495;28;20614;-70
2022/06/27 09:26:22;;;;;;;3.25;2.35;;;18.80;99.90;;;;;;4999611;28;20505;-70
2022/06/27 09:28:56;;;;;;;4.13;2.25;;;18.80;99.90;;;;;;4999893;28;20049;-70
2022/06/27 09:31:28;;;;;;;3.45;3.13;;;18.70;99.90;;;;;;5002234;28;20038;-71
2022/06/27 09:34:18;;;;;;;4.25;2.92;;;18.70;99.90;;;;;;4998587;28;20047;-70
2022/06/27 09:36:51;;;;;;;4.45;3.38;;;18.70;99.90;;;;;;4987541;28;20049;-71
2022/06/27 09:39:18;;;;;;;4.38;3.28;;;18.60;99.90;;;;;;4998385;28;20042;-70
2022/06/27 09:41:50;;;;;;;4.88;3.00;;;18.60;99.90;;;;;;5000913;28;20049;-70
2022/06/27 09:44:21;;;;;;;3.35;2.90;;;18.60;99.90;;;;;;4985115;28;20041;-70
2022/06/27 09:47:00;;;;;;;5.40;3.35;;;18.60;99.90;;;;;;4984032;28;20081;-70
2022/06/27 09:49:31;;;;;;;4.78;3.63;;;18.70;99.90;;;;;;5000026;28;20080;-70
2022/06/27 09:51:57;;;;;;;4.70;3.80;;;18.60;99.90;;;;;;5000411;28;20073;-70
2022/06/27 09:54:24;;;;;;;4.07;3.38;;;18.60;99.90;;;;;;4979498;28;20037;-70
2022/06/27 09:56:50;;;;;;;5.82;3.80;;;18.70;99.90;;;;;;4997146;28;20563;-70
2022/06/27 09:59:17;;;;;;;5.13;3.55;;;18.60;99.90;;;;;;4982445;28;20564;-70
2022/06/27 10:01:43;;;;;;;4.18;2.75;;;18.70;99.90;;;;;;4981601;28;20117;-70
2022/06/27 10:04:10;;;;;;;4.20;3.35;;;18.70;99.90;;;;;;4979487;28;20046;-71
2022/06/27 10:06:41;;;;;;;3.08;2.53;;;18.70;99.90;;;;;;4998275;28;20045;-70
2022/06/27 10:09:08;;;;;;;3.38;2.70;;;18.80;99.90;;;;;;4981771;28;20338;-70
2022/06/27 10:11:36;;;;;;;3.53;2.38;;;18.80;99.90;;;;;;4965557;28;20090;-70
2022/06/27 10:14:20;;;;;;;3.80;2.63;;;18.90;99.90;;;;;;4998249;28;20753;-71
2022/06/27 10:16:57;;;;;;;4.30;2.10;;;18.90;99.90;;;;;;4982010;28;20042;-70
2022/06/27 10:19:28;;;;;;;5.53;2.53;;;18.90;99.90;;;;;;5000433;28;20108;-70
2022/06/27 10:21:56;;;;;;;2.95;2.30;;;18.90;99.90;;;;;;4966850;28;20149;-70
2022/06/27 10:24:23;;;;;;;5.00;3.22;;;18.90;99.90;;;;;;4998872;28;20049;-70
2022/06/27 10:26:52;;;;;;;3.55;2.60;;;18.90;99.90;;;;;;5000146;28;20103;-70
2022/06/27 10:29:29;;;;;;;4.38;3.13;;;18.90;99.90;;;;;;4985652;28;20050;-71
2022/06/27 10:32:02;;;;;;;4.70;2.90;;;18.90;99.90;;;;;;4982371;28;20046;-70
2022/06/27 10:34:40;;;;;;;5.55;3.30;;;18.90;99.90;;;;;;4985089;28;20056;-70
2022/06/27 10:37:21;;;;;;;3.35;2.45;;;18.90;99.90;;;;;;4999058;28;20503;-70
2022/06/27 10:39:51;;;;;;;3.47;2.20;;;18.90;99.90;;;;;;5001368;28;20042;-70
2022/06/27 10:42:45;;;;;;;3.08;1.98;;;18.90;99.90;;;;;;4984497;28;20050;-70
2022/06/27 10:45:20;;;;;;;2.90;2.13;;;19.00;99.90;;;;;;4981674;28;20050;-70
2022/06/27 10:47:51;;;;;;;2.90;2.25;;;19.00;99.90;;;;;;4995830;28;20037;-70
2022/06/27 10:50:19;;;;;;;3.63;2.67;;;19.00;99.90;;;;;;4995482;28;20042;-70
2022/06/27 10:52:46;;;;;;;3.90;3.40;;;19.00;99.90;;;;;;4999356;28;21728;-70
2022/06/27 10:55:21;;;;;;;4.15;3.20;;;19.10;99.90;;;;;;4994110;28;20609;-70
2022/06/27 10:57:48;;;;;;;5.93;3.58;;;19.20;99.90;;;;;;4990192;28;21010;-70
2022/06/27 11:00:42;;;;;;;3.83;3.03;;;19.10;99.90;;;;;;4962601;28;20054;-70
2022/06/27 11:03:18;;;;;;;4.90;3.35;;;19.20;99.90;;;;;;4983580;28;20046;-70
2022/06/27 11:06:00;;;;;;;3.97;3.38;;;19.10;99.90;;;;;;5003659;28;20409;-70
2022/06/27 11:08:27;;;;;;;4.70;3.30;;;19.10;99.90;;;;;;5002053;28;20046;-70
2022/06/27 11:10:53;;;;;;;4.43;3.53;;;19.00;99.90;;;;;;5001542;28;20038;-70
2022/06/27 11:13:46;;;;;;;3.53;2.55;;;19.00;99.90;;;;;;5005020;28;20053;-70
2022/06/27 11:16:17;;;;;;;4.25;3.30;;;19.10;99.90;;;;;;5003262;28;20042;-70
2022/06/27 11:18:55;;;;;;;5.07;3.55;;;19.10;99.90;;;;;;5005683;28;20046;-70
2022/06/27 11:21:26;;;;;;;3.72;3.13;;;19.20;99.90;;;;;;5002369;28;20121;-70
2022/06/27 11:23:56;;;;;;;4.63;3.30;;;19.20;99.90;;;;;;5003444;28;20054;-70
2022/06/27 11:26:26;;;;;;;5.13;3.30;;;19.20;99.90;;;;;;4985515;28;20042;-70
2022/06/27 11:34:24;;;;;;;4.63;3.75;;;19.20;99.90;;;;;;5000301;28;20157;-70
2022/06/27 11:36:50;;;;;;;5.07;3.55;;;19.20;99.90;;;;;;5001438;28;20042;-71
2022/06/27 11:39:25;;;;;;;4.82;3.60;;;19.20;99.90;;;;;;4994409;28;20091;-70
2022/06/27 11:41:56;;;;;;;4.25;3.25;;;19.20;99.90;;;;;;4999507;28;20592;-70
2022/06/27 11:44:23;;;;;;;3.50;3.05;;;19.20;99.90;;;;;;4984821;28;20073;-70
2022/06/27 11:46:51;;;;;;;4.43;4.00;;;19.20;99.90;;;;;;5003529;28;20472;-71
2022/06/27 11:49:35;;;;;;;4.47;3.60;;;19.20;99.90;;;;;;5000828;28;20091;-70
2022/06/27 11:52:03;;;;;;;5.32;4.45;;;19.20;99.90;;;;;;4984852;28;20382;-71
2022/06/27 11:54:37;;;;;;;4.00;3.47;;;19.20;99.90;;;;;;5002607;28;20624;-71
2022/06/27 11:57:04;;;;;;;4.72;4.32;;;19.20;99.90;;;;;;5000506;28;20404;-70
2022/06/27 11:59:30;;;;;;;7.40;5.78;;;19.20;99.90;;;;;;4966973;28;20125;-70
2022/06/27 12:02:03;;;;;;;7.90;4.78;;;19.20;99.90;;;;;;5000264;28;20050;-70
2022/06/27 12:04:30;;;;;;;5.70;4.45;;;19.10;99.90;;;;;;4985783;28;20126;-70
2022/06/27 12:06:58;;;;;;;6.72;5.38;;;19.10;99.90;;;;;;5002266;28;20052;-70
2022/06/27 12:09:26;;;;;;;6.50;5.38;;;19.10;99.90;;;;;;4985428;28;20041;-70
2022/06/27 12:11:55;;;;;;;6.10;4.70;;;19.20;99.90;;;;;;5000873;28;20049;-70
2022/06/27 12:14:22;;;;;;;5.30;4.80;;;19.20;99.90;;;;;;5001905;28;20109;-71
2022/06/27 12:16:50;;;;;;;5.97;5.10;;;19.30;99.90;;;;;;4986644;28;20049;-70
2022/06/27 12:19:16;;;;;;;8.00;5.70;;;19.40;99.90;;;;;;4987754;28;20041;-70
2022/06/27 12:21:43;;;;;;;6.18;5.50;;;19.40;99.90;;;;;;5004970;28;20409;-70
2022/06/27 12:24:11;;;;;;;6.97;5.78;;;19.40;99.90;;;;;;4986296;28;20045;-71
2022/06/27 12:26:36;;;;;;;5.90;5.30;;;19.40;99.90;;;;;;4987553;28;20057;-70
2022/06/27 12:29:04;;;;;;;7.07;5.65;;;19.40;99.90;;;;;;4986456;28;20428;-70
2022/06/27 12:31:31;;;;;;;5.75;5.15;;;19.40;99.90;;;;;;5003340;28;20045;-70
2022/06/27 12:33:56;;;;;;;7.18;5.18;;;19.50;99.90;;;;;;5002491;28;20137;-70
2022/06/27 12:36:22;;;;;;;6.63;5.93;;;19.40;99.90;;;;;;4981855;28;20497;-71
2022/06/27 12:38:48;;;;;;;6.40;5.88;;;19.40;99.90;;;;;;4996413;28;20538;-71
2022/06/27 12:41:16;;;;;;;6.90;6.25;;;19.50;99.90;;;;;;4964136;28;20053;-70
2022/06/27 12:43:44;;;;;;;6.35;5.75;;;19.50;99.90;;;;;;4983232;28;20084;-70
2022/06/27 12:46:11;;;;;;;6.50;5.90;;;19.50;99.90;;;;;;4984470;28;20153;-70
2022/06/27 12:48:37;;;;;;;6.68;5.95;;;19.50;99.90;;;;;;4999386;28;20133;-71
2022/06/27 12:51:04;;;;;;;7.18;5.85;;;19.50;99.90;;;;;;5000060;28;20477;-70
2022/06/27 12:53:30;;;;;;;6.60;6.00;;;19.40;99.90;;;;;;4985376;28;20740;-70